»·PEaware :: PIN2130 KMIA-KEYW

PIN2130 :: KMIA-KEYW

FLIGHT INFORMATION

Flight Status: Arrived
Operator: Unknown
More flights by this operator :: More flights under this callsign
Pilot: Stacy K. (11621)
Aircraft: CESSNA 404 TITAN
(C404)
More flights by this aircraft type
Origin: KMIA Miami Intl
United States
Destination: KEYW Key West Intl
United States
More flights between these airports :: More routes between these airports
Route: MNATE2 MNATE DCT JANKA
File this flight plan on PilotEdge
Remarks: PBN / D2 DOF / 170515 REG / N182SB SEL / BCDG OPR / PIN RMK / TCAS SIMBRIEF
Altitude:
(Current/Filed)
10,000ft
Speed:
(Current/Filed)
222kts
Departed: 16-May-17 03:48 PM
Arrived: 16-May-17 04:31 PM
Distance/Time
Traveled:
109nm/0:43
Distance/Time
To Go:
Arrived

Flight Plot

Page will automatically refresh every two minutes.

Flight plan parsing failed; only flown route is shown


Map Options




Map Legend


Flown Route
Filed Route
Departure Airport
Arrival Airport
Navaid (VOR, NDB)
Fix

Horizontal Profiles

Position Reports

Time Latitude Longitude Heading Altitude Ground
Speed
16-May-17 15:32 25.792908 -80.294922 209 11ft 0kts
16-May-17 15:33 25.792908 -80.294922 209 11ft 0kts
16-May-17 15:34 25.792908 -80.294922 209 11ft 0kts
16-May-17 15:35 25.792908 -80.294922 209 11ft 0kts
16-May-17 15:36 25.792908 -80.294922 209 11ft 0kts
16-May-17 15:37 25.792908 -80.294922 209 11ft 0kts
16-May-17 15:38 25.792908 -80.294922 209 11ft 0kts
16-May-17 15:39 25.792908 -80.294922 209 11ft 0kts
16-May-17 15:40 25.792908 -80.294922 209 11ft 0kts
16-May-17 15:41 25.793610 -80.294773 28 11ft 12kts
16-May-17 15:42 25.794016 -80.294713 256 11ft 1kts
16-May-17 15:43 25.792531 -80.292179 124 11ft 9kts
16-May-17 15:44 25.790340 -80.288959 172 11ft 14kts
16-May-17 15:45 25.788996 -80.291388 268 11ft 12kts
16-May-17 15:46 25.788806 -80.296917 267 11ft 24kts
16-May-17 15:47 25.788602 -80.302534 268 11ft 10kts
16-May-17 15:48 25.788311 -80.309265 267 11ft 24kts
16-May-17 15:49 25.787356 -80.314264 176 11ft 10kts
16-May-17 15:50 25.786222 -80.311954 87 11ft 65kts
16-May-17 15:51 25.782574 -80.276043 136 1526ft 158kts
16-May-17 15:52 25.736403 -80.293922 211 2608ft 205kts
16-May-17 15:53 25.685517 -80.322394 196 3690ft 199kts
16-May-17 15:54 25.634083 -80.341005 191 4876ft 190kts
16-May-17 15:55 25.584100 -80.357186 191 6066ft 184kts
16-May-17 15:56 25.536166 -80.372417 191 7247ft 174kts
16-May-17 15:57 25.490394 -80.386915 192 8437ft 167kts
16-May-17 15:58 25.446723 -80.400737 192 9622ft 159kts
16-May-17 15:59 25.404165 -80.414178 192 10490ft 171kts
16-May-17 16:00 25.353152 -80.430260 193 10504ft 203kts
16-May-17 16:01 25.297113 -80.447987 193 10496ft 213kts
16-May-17 16:02 25.239534 -80.465498 190 10489ft 215kts
16-May-17 16:03 25.181190 -80.479201 189 10487ft 213kts
16-May-17 16:04 25.123158 -80.492145 188 10481ft 212kts
16-May-17 16:05 25.065378 -80.504962 188 10472ft 212kts
16-May-17 16:06 25.007643 -80.517755 188 10470ft 211kts
16-May-17 16:07 24.964553 -80.558666 239 10470ft 218kts
16-May-17 16:08 24.936839 -80.618593 241 10468ft 219kts
16-May-17 16:09 24.909780 -80.678687 241 10467ft 219kts
16-May-17 16:10 24.882703 -80.738784 241 10467ft 219kts
16-May-17 16:11 24.855605 -80.798847 241 10467ft 219kts
16-May-17 16:12 24.828386 -80.859100 241 10467ft 219kts
16-May-17 16:13 24.801208 -80.919181 241 10467ft 219kts
16-May-17 16:14 24.778542 -80.969229 241 10467ft 219kts
16-May-17 16:15 24.746687 -81.039474 241 10467ft 219kts
16-May-17 16:16 24.723968 -81.089508 241 10461ft 220kts
16-May-17 16:17 24.691640 -81.160618 241 9515ft 223kts
16-May-17 16:18 24.663674 -81.222039 241 8518ft 226kts
16-May-17 16:19 24.644506 -81.275939 253 7687ft 228kts
16-May-17 16:20 24.630886 -81.344423 256 6688ft 230kts
16-May-17 16:21 24.611683 -81.423528 245 5531ft 230kts
16-May-17 16:22 24.590787 -81.477357 244 4698ft 230kts
16-May-17 16:23 24.565482 -81.542259 244 3698ft 230kts
16-May-17 16:24 24.538469 -81.603392 234 2705ft 217kts
16-May-17 16:25 24.510048 -81.657101 243 2294ft 187kts
16-May-17 16:26 24.489042 -81.717018 253 2300ft 181kts
16-May-17 16:27 24.477551 -81.770863 254 2296ft 180kts
16-May-17 16:28 24.472044 -81.815312 292 2313ft 171kts
16-May-17 16:29 24.506845 -81.834406 349 1951ft 136kts
16-May-17 16:30 24.542037 -81.834968 40 1709ft 118kts
16-May-17 16:31 24.555323 -81.804253 87 773ft 92kts
16-May-17 16:32 24.555985 -81.778787 91 288ft 81kts
16-May-17 16:33 24.556030 -81.759244 89 6ft 32kts
16-May-17 16:34 24.555776 -81.755827 175 6ft 0kts
16-May-17 16:35 24.554613 -81.755520 87 6ft 6kts
16-May-17 16:36 24.554092 -81.753889 165 6ft 3kts
16-May-17 16:37 24.554027 -81.753537 87 6ft 0kts
16-May-17 16:38 24.554027 -81.753537 87 6ft 0kts
16-May-17 16:39 24.554027 -81.753537 87 6ft 0kts
16-May-17 16:40 24.554027 -81.753537 87 6ft 0kts
16-May-17 16:41 24.554027 -81.753537 87 6ft 0kts
16-May-17 16:42 24.554027 -81.753537 87 6ft 0kts

Navigation Log

Ident Type
Flight plan parsing failed, navigation log unavailable